Time,TemperatureF,DewpointF,PressureIn,WindDirection,WindDirectionDegrees,WindSpeedMPH,WindSpeedGustMPH,Humidity,HourlyPrecipIn,Conditions,Clouds,dailyrainin,SoftwareType,DateUTC
2013-01-03 00:05:00,51.4,51.4,30.33,WNW,292,1.6,4.5,100,0.00,RA,OVC,0.00,WeatherDisplay:10.37,2013-01-03 00:05:00,
2013-01-03 00:10:00,51.4,51.4,30.33,WSW,248,2.2,5.4,100,0.00,RA,OVC,0.00,WeatherDisplay:10.37,2013-01-03 00:10:00,
2013-01-03 00:15:00,51.4,51.4,30.33,North,0,2.2,4.6,100,0.00,CLR,OVC,0.00,WeatherDisplay:10.37,2013-01-03 00:15:00,
2013-01-03 00:20:00,51.4,51.4,30.33,NW,315,1.6,5.8,100,0.00,CLR,OVC,0.00,WeatherDisplay:10.37,2013-01-03 00:20:00,
2013-01-03 00:25:00,51.4,51.4,30.33,North,0,0.7,3.5,100,0.00,CLR,OVC,0.00,WeatherDisplay:10.37,2013-01-03 00:25:00,
2013-01-03 00:30:00,51.4,51.4,30.33,West,270,1.6,4.6,100,0.00,CLR,OVC,0.00,WeatherDisplay:10.37,2013-01-03 00:30:00,
2013-01-03 00:35:00,51.4,51.4,30.33,NW,325,2.0,9.0,100,0.00,CLR,OVC,0.00,WeatherDisplay:10.37,2013-01-03 00:35:00,
2013-01-03 00:40:00,51.4,51.4,30.33,West,270,0.0,2.3,100,0.00,CLR,OVC,0.00,WeatherDisplay:10.37,2013-01-03 00:40:00,
2013-01-03 00:45:00,51.4,51.4,30.33,NW,315,2.2,3.8,100,0.00,CLR,OVC,0.00,WeatherDisplay:10.37,2013-01-03 00:45:00,
2013-01-03 00:50:00,51.4,51.4,30.33,NW,315,0.7,2.3,100,0.00,CLR,OVC,0.00,WeatherDisplay:10.37,2013-01-03 00:50:00,
2013-01-03 00:55:00,51.4,51.4,30.34,North,0,0.7,3.5,100,0.00,CLR,OVC,0.00,WeatherDisplay:10.37,2013-01-03 00:55:00,
2013-01-03 01:00:00,51.4,51.4,30.34,NE,45,0.7,3.5,100,0.00,CLR,OVC,0.00,WeatherDisplay:10.37,2013-01-03 01:00:00,
2013-01-03 01:05:00,51.3,51.3,30.33,NW,315,0.7,2.2,100,0.00,CLR,OVC,0.00,WeatherDisplay:10.37,2013-01-03 01:05:00,
2013-01-03 01:10:00,51.3,51.3,30.33,North,0,0.0,1.6,100,0.00,CLR,OVC,0.00,WeatherDisplay:10.37,2013-01-03 01:10:00,
2013-01-03 01:15:00,51.1,51.1,30.34,NW,315,0.7,2.3,100,0.00,CLR,OVC,0.00,WeatherDisplay:10.37,2013-01-03 01:15:00,
2013-01-03 01:20:00,51.3,51.3,30.34,North,0,0.0,2.2,100,0.00,CLR,OVC,0.00,WeatherDisplay:10.37,2013-01-03 01:20:00,
2013-01-03 01:25:00,51.1,51.1,30.34,WNW,292,0.0,1.6,100,0.00,CLR,OVC,0.00,WeatherDisplay:10.37,2013-01-03 01:25:00,
2013-01-03 01:30:00,51.1,51.1,30.34,West,270,0.0,1.1,100,0.00,CLR,OVC,0.00,WeatherDisplay:10.37,2013-01-03 01:30:00,
2013-01-03 01:35:00,51.1,51.1,30.34,North,0,0.0,1.1,100,0.00,CLR,OVC,0.00,WeatherDisplay:10.37,2013-01-03 01:35:00,
2013-01-03 01:40:00,51.1,51.1,30.34,NW,315,0.0,1.1,100,0.00,CLR,OVC,0.00,WeatherDisplay:10.37,2013-01-03 01:40:00,
2013-01-03 01:45:00,51.1,51.1,30.35,East,90,0.0,1.6,100,0.00,CLR,OVC,0.00,WeatherDisplay:10.37,2013-01-03 01:45:00,
2013-01-03 01:50:00,51.1,51.1,30.35,NE,45,0.0,2.3,100,0.00,CLR,OVC,0.00,WeatherDisplay:10.37,2013-01-03 01:50:00,
2013-01-03 01:55:00,51.1,51.1,30.35,East,90,0.0,2.3,100,0.00,CLR,OVC,0.00,WeatherDisplay:10.37,2013-01-03 01:55:00,
2013-01-03 02:00:00,51.1,51.1,30.35,SE,135,0.0,3.5,100,0.00,CLR,OVC,0.00,WeatherDisplay:10.37,2013-01-03 02:00:00,
2013-01-03 02:05:00,51.1,51.1,30.35,NE,45,0.0,3.5,100,0.00,CLR,OVC,0.00,WeatherDisplay:10.37,2013-01-03 02:05:00,
2013-01-03 02:10:00,51.1,51.1,30.36,WNW,292,0.0,3.5,100,0.00,CLR,OVC,0.00,WeatherDisplay:10.37,2013-01-03 02:10:00,
2013-01-03 02:15:00,51.1,51.1,30.36,SSW,202,0.0,3.8,100,0.00,CLR,OVC,0.00,WeatherDisplay:10.37,2013-01-03 02:15:00,
2013-01-03 02:20:00,51.1,51.1,30.36,NW,315,0.0,1.6,100,0.00,CLR,OVC,0.00,WeatherDisplay:10.37,2013-01-03 02:20:00,
2013-01-03 02:25:00,51.1,51.1,30.36,North,0,0.0,3.5,100,0.00,CLR,OVC,0.00,WeatherDisplay:10.37,2013-01-03 02:25:00,
2013-01-03 02:30:00,51.1,51.1,30.36,North,0,2.2,7.6,100,0.00,CLR,OVC,0.00,WeatherDisplay:10.37,2013-01-03 02:30:00,
2013-01-03 02:36:00,51.1,51.1,30.36,SSW,202,0.0,2.3,100,0.00,CLR,OVC,0.00,WeatherDisplay:10.37,2013-01-03 02:36:00,
2013-01-03 02:41:00,51.1,51.1,30.36,NW,315,0.7,3.5,100,0.00,CLR,OVC,0.00,WeatherDisplay:10.37,2013-01-03 02:41:00,
2013-01-03 02:46:00,51.1,51.1,30.36,WSW,248,0.7,3.5,100,0.00,CLR,OVC,0.00,WeatherDisplay:10.37,2013-01-03 02:46:00,
2013-01-03 02:51:00,51.1,51.1,30.36,ESE,112,0.0,5.8,100,0.00,CLR,OVC,0.00,WeatherDisplay:10.37,2013-01-03 02:51:00,
2013-01-03 02:56:00,51.1,51.1,30.36,NW,315,0.7,3.5,100,0.00,CLR,OVC,0.00,WeatherDisplay:10.37,2013-01-03 02:56:00,
2013-01-03 03:02:00,51.1,51.1,30.37,West,270,1.6,3.1,100,0.00,CLR,OVC,0.00,WeatherDisplay:10.37,2013-01-03 03:02:00,
2013-01-03 03:07:00,51.1,51.1,30.37,WSW,248,3.1,6.9,100,0.00,CLR,OVC,0.00,WeatherDisplay:10.37,2013-01-03 03:07:00,
2013-01-03 03:12:00,51.1,51.1,30.37,NW,315,0.0,3.5,100,0.00,CLR,OVC,0.00,WeatherDisplay:10.37,2013-01-03 03:12:00,
2013-01-03 03:17:00,51.1,51.1,30.37,NW,315,0.0,3.5,100,0.00,CLR,OVC,0.00,WeatherDisplay:10.37,2013-01-03 03:17:00,
2013-01-03 03:22:00,51.1,51.1,30.37,NW,315,1.6,3.5,100,0.00,CLR,OVC,0.00,WeatherDisplay:10.37,2013-01-03 03:22:00,
2013-01-03 03:27:00,51.1,51.1,30.38,West,270,2.2,5.8,100,0.00,CLR,OVC,0.00,WeatherDisplay:10.37,2013-01-03 03:27:00,
2013-01-03 03:33:00,51.1,51.1,30.37,WNW,292,0.7,2.3,100,0.00,CLR,OVC,0.00,WeatherDisplay:10.37,2013-01-03 03:33:00,
2013-01-03 03:39:00,51.1,51.1,30.37,North,0,0.7,4.6,100,0.00,CLR,OVC,0.00,WeatherDisplay:10.37,2013-01-03 03:39:00,
2013-01-03 03:44:00,51.1,51.1,30.37,NE,45,0.0,3.5,100,0.00,CLR,OVC,0.00,WeatherDisplay:10.37,2013-01-03 03:44:00,
2013-01-03 03:49:00,50.9,50.9,30.37,NW,315,0.7,2.3,100,0.00,CLR,OVC,0.00,WeatherDisplay:10.37,2013-01-03 03:49:00,
2013-01-03 03:54:00,50.9,50.9,30.37,NW,315,0.7,5.8,100,0.00,CLR,OVC,0.00,WeatherDisplay:10.37,2013-01-03 03:54:00,
2013-01-03 03:59:00,50.9,50.9,30.38,WSW,248,1.6,3.1,100,0.00,CLR,OVC,0.00,WeatherDisplay:10.37,2013-01-03 03:59:00,
2013-01-03 04:04:00,50.9,50.9,30.38,North,0,0.7,4.6,100,0.00,CLR,OVC,0.00,WeatherDisplay:10.37,2013-01-03 04:04:00,
2013-01-03 04:09:00,50.9,50.9,30.38,NE,45,0.7,3.1,100,0.00,CLR,OVC,0.00,WeatherDisplay:10.37,2013-01-03 04:09:00,
2013-01-03 04:14:00,50.9,50.9,30.38,South,180,0.7,3.5,100,0.00,CLR,OVC,0.00,WeatherDisplay:10.37,2013-01-03 04:14:00,
2013-01-03 04:19:00,50.7,50.7,30.38,North,0,1.6,3.5,100,0.00,CLR,OVC,0.00,WeatherDisplay:10.37,2013-01-03 04:19:00,
2013-01-03 04:24:00,50.7,50.7,30.39,North,0,1.6,3.5,100,0.00,CLR,OVC,0.00,WeatherDisplay:10.37,2013-01-03 04:24:00,
2013-01-03 04:29:00,50.7,50.7,30.38,North,0,0.0,2.3,100,0.00,CLR,OVC,0.00,WeatherDisplay:10.37,2013-01-03 04:29:00,
2013-01-03 04:34:00,50.7,50.7,30.39,NE,45,0.7,3.5,100,0.00,CLR,OVC,0.00,WeatherDisplay:10.37,2013-01-03 04:34:00,
2013-01-03 04:39:00,50.7,50.7,30.39,NW,315,0.7,4.6,100,0.00,CLR,OVC,0.00,WeatherDisplay:10.37,2013-01-03 04:39:00,
2013-01-03 04:44:00,50.5,50.5,30.39,North,0,0.7,3.5,100,0.00,CLR,OVC,0.00,WeatherDisplay:10.37,2013-01-03 04:44:00,
2013-01-03 04:49:00,50.5,50.5,30.39,North,0,2.2,4.6,100,0.00,CLR,OVC,0.00,WeatherDisplay:10.37,2013-01-03 04:49:00,
2013-01-03 04:54:00,50.5,50.5,30.39,NNW,338,1.6,4.6,100,0.00,CLR,OVC,0.00,WeatherDisplay:10.37,2013-01-03 04:54:00,
2013-01-03 04:59:00,50.4,50.4,30.39,WSW,248,1.6,6.0,100,0.00,CLR,OVC,0.00,WeatherDisplay:10.37,2013-01-03 04:59:00,
2013-01-03 05:00:00,50.4,50.4,30.39,NE,45,1.6,5.8,100,0.00,CLR,OVC,0.00,WeatherDisplay:10.37,2013-01-03 05:00:00,
2013-01-03 05:03:00,50.4,50.4,30.39,NW,315,0.7,3.5,100,0.00,CLR,OVC,0.00,WeatherDisplay:10.37,2013-01-03 05:03:00,
2013-01-03 05:09:00,50.4,50.4,30.39,NW,315,0.7,3.5,100,0.00,CLR,OVC,0.00,WeatherDisplay:10.37,2013-01-03 05:09:00,
2013-01-03 05:14:00,50.2,50.2,30.39,South,180,1.6,3.8,100,0.00,CLR,OVC,0.00,WeatherDisplay:10.37,2013-01-03 05:14:00,
2013-01-03 05:19:00,50.2,50.2,30.39,North,0,0.0,3.5,100,0.00,CLR,OVC,0.00,WeatherDisplay:10.37,2013-01-03 05:19:00,
2013-01-03 05:24:00,50.2,50.2,30.38,North,0,0.7,3.8,100,0.00,CLR,OVC,0.00,WeatherDisplay:10.37,2013-01-03 05:24:00,
2013-01-03 05:29:00,50.0,50.0,30.39,NW,315,0.7,3.5,100,0.00,CLR,OVC,0.00,WeatherDisplay:10.37,2013-01-03 05:29:00,
2013-01-03 05:34:00,50.0,50.0,30.39,ENE,68,0.7,3.5,100,0.00,CLR,OVC,0.00,WeatherDisplay:10.37,2013-01-03 05:34:00,
2013-01-03 05:39:00,50.0,50.0,30.39,WSW,248,1.6,6.9,100,0.00,CLR,OVC,0.00,WeatherDisplay:10.37,2013-01-03 05:39:00,
2013-01-03 05:44:00,50.0,50.0,30.40,NW,315,0.7,3.5,100,0.00,CLR,OVC,0.00,WeatherDisplay:10.37,2013-01-03 05:44:00,
2013-01-03 05:49:00,49.8,49.8,30.40,NW,315,0.7,5.8,100,0.00,CLR,OVC,0.00,WeatherDisplay:10.37,2013-01-03 05:49:00,
2013-01-03 05:54:00,49.8,49.8,30.40,North,0,1.6,3.8,100,0.00,CLR,OVC,0.00,WeatherDisplay:10.37,2013-01-03 05:54:00,
2013-01-03 05:59:00,49.8,49.8,30.40,NW,315,1.6,5.8,100,0.00,CLR,OVC,0.00,WeatherDisplay:10.37,2013-01-03 05:59:00,
2013-01-03 06:04:00,49.8,49.8,30.40,West,270,0.7,3.5,100,0.00,CLR,OVC,0.00,WeatherDisplay:10.37,2013-01-03 06:04:00,
2013-01-03 06:09:00,49.8,49.8,30.40,West,270,2.2,8.1,100,0.00,CLR,OVC,0.00,WeatherDisplay:10.37,2013-01-03 06:09:00,
2013-01-03 06:14:00,49.8,49.8,30.40,SE,135,0.0,3.5,100,0.00,CLR,OVC,0.00,WeatherDisplay:10.37,2013-01-03 06:14:00,
2013-01-03 06:19:00,50.0,50.0,30.40,NE,45,1.6,6.9,100,0.00,CLR,OVC,0.00,WeatherDisplay:10.37,2013-01-03 06:19:00,
2013-01-03 06:24:00,50.0,50.0,30.41,NE,45,0.7,3.5,100,0.00,CLR,OVC,0.00,WeatherDisplay:10.37,2013-01-03 06:24:00,
2013-01-03 06:29:00,50.0,50.0,30.41,South,180,0.7,3.5,100,0.00,CLR,OVC,0.00,WeatherDisplay:10.37,2013-01-03 06:29:00,
2013-01-03 06:34:00,50.0,50.0,30.42,NE,45,0.7,3.1,100,0.00,CLR,OVC,0.00,WeatherDisplay:10.37,2013-01-03 06:34:00,
2013-01-03 06:39:00,50.0,50.0,30.42,SE,135,0.7,3.5,100,0.00,CLR,OVC,0.00,WeatherDisplay:10.37,2013-01-03 06:39:00,
2013-01-03 06:44:00,50.0,50.0,30.42,North,0,0.0,2.3,100,0.00,CLR,OVC,0.00,WeatherDisplay:10.37,2013-01-03 06:44:00,
2013-01-03 06:49:00,50.0,50.0,30.42,NW,315,1.6,3.8,100,0.00,CLR,OVC,0.00,WeatherDisplay:10.37,2013-01-03 06:49:00,
2013-01-03 06:54:00,50.0,50.0,30.42,North,0,0.0,3.5,100,0.00,CLR,OVC,0.00,WeatherDisplay:10.37,2013-01-03 06:54:00,
2013-01-03 06:59:00,50.0,50.0,30.43,West,270,2.2,5.4,100,0.00,CLR,OVC,0.00,WeatherDisplay:10.37,2013-01-03 06:59:00,
2013-01-03 07:04:00,50.0,50.0,30.43,NW,315,0.7,4.5,100,0.00,CLR,OVC,0.00,WeatherDisplay:10.37,2013-01-03 07:04:00,
2013-01-03 07:09:00,50.0,50.0,30.43,North,0,1.6,6.9,100,0.00,CLR,OVC,0.00,WeatherDisplay:10.37,2013-01-03 07:09:00,
2013-01-03 07:14:00,50.0,50.0,30.43,NNE,22,2.2,10.7,100,0.00,CLR,OVC,0.00,WeatherDisplay:10.37,2013-01-03 07:14:00,
2013-01-03 07:19:00,50.0,50.0,30.43,NE,45,0.7,4.6,100,0.00,CLR,OVC,0.00,WeatherDisplay:10.37,2013-01-03 07:19:00,
2013-01-03 07:24:00,50.0,50.0,30.43,North,0,0.7,5.8,100,0.00,CLR,OVC,0.00,WeatherDisplay:10.37,2013-01-03 07:24:00,
2013-01-03 07:29:00,50.0,50.0,30.43,NW,315,1.6,3.8,100,0.00,CLR,OVC,0.00,WeatherDisplay:10.37,2013-01-03 07:29:00,
2013-01-03 07:34:00,50.0,50.0,30.44,North,0,0.7,4.6,100,0.00,CLR,OVC,0.00,WeatherDisplay:10.37,2013-01-03 07:34:00,
2013-01-03 07:39:00,50.0,50.0,30.44,NW,315,2.2,5.8,100,0.00,CLR,OVC,0.00,WeatherDisplay:10.37,2013-01-03 07:39:00,
2013-01-03 07:44:00,50.0,50.0,30.44,North,0,1.6,3.8,100,0.00,CLR,OVC,0.00,WeatherDisplay:10.37,2013-01-03 07:44:00,
2013-01-03 07:49:00,50.2,50.2,30.44,NNE,22,1.6,3.5,100,0.00,CLR,OVC,0.00,WeatherDisplay:10.37,2013-01-03 07:49:00,
2013-01-03 07:54:00,50.2,50.2,30.44,NW,315,0.7,3.5,100,0.00,CLR,OVC,0.00,WeatherDisplay:10.37,2013-01-03 07:54:00,
2013-01-03 07:59:00,50.2,50.2,30.44,North,0,0.7,3.5,100,0.00,CLR,OVC,0.00,WeatherDisplay:10.37,2013-01-03 07:59:00,
2013-01-03 08:04:00,50.2,50.2,30.44,NW,315,1.6,4.6,100,0.00,CLR,OVC,0.00,WeatherDisplay:10.37,2013-01-03 08:04:00,
2013-01-03 08:09:00,50.4,50.4,30.45,NW,315,3.1,6.0,100,0.00,CLR,OVC,0.00,WeatherDisplay:10.37,2013-01-03 08:09:00,
2013-01-03 08:14:00,50.4,50.4,30.44,SE,135,0.7,5.8,100,0.00,CLR,OVC,0.00,WeatherDisplay:10.37,2013-01-03 08:14:00,
2013-01-03 08:19:00,50.4,50.4,30.45,North,0,3.1,6.0,100,0.00,CLR,OVC,0.00,WeatherDisplay:10.37,2013-01-03 08:19:00,
2013-01-03 08:24:00,50.4,50.4,30.45,NW,315,0.7,3.5,100,0.00,CLR,OVC,0.00,WeatherDisplay:10.37,2013-01-03 08:24:00,
2013-01-03 08:29:00,50.4,50.4,30.45,NE,45,0.7,3.5,100,0.00,CLR,OVC,0.00,WeatherDisplay:10.37,2013-01-03 08:29:00,
2013-01-03 08:34:00,50.4,50.4,30.45,NE,45,1.6,3.1,100,0.00,CLR,OVC,0.00,WeatherDisplay:10.37,2013-01-03 08:34:00,
2013-01-03 08:39:00,50.4,50.4,30.46,NE,45,0.0,2.3,100,0.00,CLR,OVC,0.00,WeatherDisplay:10.37,2013-01-03 08:39:00,
2013-01-03 08:44:00,50.5,50.5,30.46,NW,315,0.7,4.6,100,0.00,CLR,OVC,0.00,WeatherDisplay:10.37,2013-01-03 08:44:00,
2013-01-03 08:49:00,50.5,50.5,30.46,North,0,0.7,3.5,100,0.00,CLR,OVC,0.00,WeatherDisplay:10.37,2013-01-03 08:49:00,
2013-01-03 08:54:00,50.5,50.5,30.46,North,0,0.0,2.3,100,0.00,CLR,OVC,0.00,WeatherDisplay:10.37,2013-01-03 08:54:00,
2013-01-03 08:59:00,50.5,50.5,30.47,SE,135,0.7,3.8,100,0.00,CLR,OVC,0.00,WeatherDisplay:10.37,2013-01-03 08:59:00,
2013-01-03 09:05:00,50.5,50.5,30.47,North,0,0.7,3.5,100,0.00,CLR,OVC,0.00,WeatherDisplay:10.37,2013-01-03 09:05:00,
2013-01-03 09:10:00,50.5,50.5,30.47,North,0,1.6,3.5,100,0.00,CLR,OVC,0.00,WeatherDisplay:10.37,2013-01-03 09:10:00,
2013-01-03 09:15:00,50.7,50.7,30.47,North,3,0.0,3.0,100,0.00,CLR,OVC,0.00,WeatherDisplay:10.37,2013-01-03 09:15:00,
2013-01-03 09:20:00,50.7,50.7,30.47,North,3,1.0,5.0,100,0.00,CLR,OVC,0.00,WeatherDisplay:10.37,2013-01-03 09:20:00,
2013-01-03 09:25:00,50.7,50.7,30.47,NNW,333,0.0,6.0,100,0.00,CLR,OVC,0.00,WeatherDisplay:10.37,2013-01-03 09:25:00,
2013-01-03 09:30:00,50.7,50.7,30.47,NNW,339,1.0,5.0,100,0.00,CLR,OVC,0.00,WeatherDisplay:10.37,2013-01-03 09:30:00,
2013-01-03 09:35:00,50.7,50.7,30.48,North,4,0.0,4.0,100,0.00,CLR,OVC,0.00,WeatherDisplay:10.37,2013-01-03 09:35:00,
2013-01-03 09:40:00,50.9,50.9,30.48,East,90,0.7,3.5,100,0.01,RA,OVC,0.01,WeatherDisplay:10.37,2013-01-03 09:40:00,
2013-01-03 09:45:00,50.9,50.9,30.48,NNW,338,2.2,4.5,100,0.01,RA,OVC,0.01,WeatherDisplay:10.37,2013-01-03 09:45:00,
2013-01-03 09:50:00,50.9,50.9,30.48,NW,315,2.2,5.8,100,0.01,,OVC,0.01,WeatherDisplay:10.37,2013-01-03 09:50:00,
2013-01-03 09:55:00,50.9,50.9,30.48,North,0,0.0,5.8,100,0.01,CLR,OVC,0.01,WeatherDisplay:10.37,2013-01-03 09:55:00,
2013-01-03 10:00:00,50.9,50.9,30.48,North,0,1.6,3.8,100,0.01,CLR,OVC,0.01,WeatherDisplay:10.37,2013-01-03 10:00:00,
2013-01-03 10:05:00,51.1,51.1,30.48,North,0,1.6,4.6,100,0.01,CLR,OVC,0.01,WeatherDisplay:10.37,2013-01-03 10:05:00,
2013-01-03 10:10:00,51.1,51.1,30.49,West,270,1.6,4.5,100,0.01,CLR,OVC,0.01,WeatherDisplay:10.37,2013-01-03 10:10:00,
2013-01-03 10:15:00,51.1,51.1,30.49,North,0,2.2,4.6,100,0.01,CLR,OVC,0.01,WeatherDisplay:10.37,2013-01-03 10:15:00,
2013-01-03 10:20:00,51.1,51.1,30.49,NE,45,2.2,4.5,100,0.01,CLR,OVC,0.01,WeatherDisplay:10.37,2013-01-03 10:20:00,
2013-01-03 10:25:00,51.3,51.3,30.49,NNE,22,0.7,3.5,100,0.01,CLR,OVC,0.01,WeatherDisplay:10.37,2013-01-03 10:25:00,
2013-01-03 10:30:00,51.1,51.1,30.49,NW,315,2.2,5.8,100,0.01,CLR,OVC,0.01,WeatherDisplay:10.37,2013-01-03 10:30:00,
2013-01-03 10:35:00,51.1,51.1,30.49,WSW,248,3.1,8.1,100,0.01,CLR,OVC,0.01,WeatherDisplay:10.37,2013-01-03 10:35:00,
2013-01-03 10:40:00,51.3,51.3,30.49,NNW,338,0.7,5.8,100,0.00,CLR,OVC,0.01,WeatherDisplay:10.37,2013-01-03 10:40:00,
2013-01-03 10:45:00,51.3,51.3,30.49,West,270,2.2,4.5,100,0.00,CLR,OVC,0.01,WeatherDisplay:10.37,2013-01-03 10:45:00,
2013-01-03 10:50:00,51.3,51.3,30.49,SE,135,0.0,3.5,100,0.00,CLR,OVC,0.01,WeatherDisplay:10.37,2013-01-03 10:50:00,
2013-01-03 10:55:00,51.3,51.3,30.50,NE,45,1.6,5.8,100,0.00,CLR,OVC,0.01,WeatherDisplay:10.37,2013-01-03 10:55:00,
2013-01-03 11:00:00,51.3,51.3,30.50,NW,315,0.0,8.1,100,0.00,CLR,OVC,0.01,WeatherDisplay:10.37,2013-01-03 11:00:00,
2013-01-03 11:05:00,51.3,51.3,30.50,North,0,1.6,5.8,100,0.00,CLR,OVC,0.01,WeatherDisplay:10.37,2013-01-03 11:05:00,
2013-01-03 11:10:00,51.4,51.4,30.50,NW,315,0.7,4.6,100,0.00,CLR,OVC,0.01,WeatherDisplay:10.37,2013-01-03 11:10:00,
2013-01-03 11:15:00,51.4,51.4,30.50,North,0,0.7,4.6,100,0.00,CLR,OVC,0.01,WeatherDisplay:10.37,2013-01-03 11:15:00,
2013-01-03 11:20:00,51.4,51.4,30.50,NW,315,0.7,2.3,100,0.00,CLR,OVC,0.01,WeatherDisplay:10.37,2013-01-03 11:20:00,
2013-01-03 11:25:00,51.6,51.6,30.50,NE,45,1.6,5.8,100,0.00,CLR,OVC,0.01,WeatherDisplay:10.37,2013-01-03 11:25:00,
2013-01-03 11:30:00,51.6,51.6,30.50,West,270,2.2,4.6,100,0.00,CLR,OVC,0.01,WeatherDisplay:10.37,2013-01-03 11:30:00,
2013-01-03 11:36:00,51.6,51.6,30.50,North,0,1.6,4.5,100,0.00,CLR,OVC,0.01,WeatherDisplay:10.37,2013-01-03 11:36:00,
2013-01-03 11:41:00,51.8,51.8,30.50,North,0,2.2,4.6,100,0.00,CLR,OVC,0.01,WeatherDisplay:10.37,2013-01-03 11:41:00,
2013-01-03 11:46:00,51.8,51.8,30.50,NNE,22,1.6,8.1,100,0.00,CLR,OVC,0.01,WeatherDisplay:10.37,2013-01-03 11:46:00,
2013-01-03 11:51:00,52.0,52.0,30.50,North,0,0.7,3.5,100,0.00,CLR,OVC,0.01,WeatherDisplay:10.37,2013-01-03 11:51:00,
2013-01-03 11:56:00,52.0,52.0,30.50,NE,45,2.2,6.0,100,0.00,CLR,OVC,0.01,WeatherDisplay:10.37,2013-01-03 11:56:00,
2013-01-03 12:01:00,52.0,52.0,30.50,North,0,2.2,5.8,100,0.00,CLR,OVC,0.01,WeatherDisplay:10.37,2013-01-03 12:01:00,
2013-01-03 12:06:00,52.0,52.0,30.50,North,0,0.7,3.5,100,0.00,CLR,OVC,0.01,WeatherDisplay:10.37,2013-01-03 12:06:00,
2013-01-03 12:11:00,52.2,52.2,30.50,North,0,1.6,3.5,100,0.00,CLR,OVC,0.01,WeatherDisplay:10.37,2013-01-03 12:11:00,
2013-01-03 12:16:00,52.2,52.2,30.50,NE,45,1.6,3.8,100,0.00,CLR,OVC,0.01,WeatherDisplay:10.37,2013-01-03 12:16:00,
2013-01-03 12:21:00,52.2,52.2,30.51,NW,315,2.2,5.8,100,0.00,CLR,OVC,0.01,WeatherDisplay:10.37,2013-01-03 12:21:00,
2013-01-03 12:26:00,52.2,52.2,30.50,NW,315,2.2,5.8,100,0.00,CLR,OVC,0.01,WeatherDisplay:10.37,2013-01-03 12:26:00,
2013-01-03 12:31:00,52.3,52.3,30.50,NW,315,0.7,3.5,100,0.00,CLR,OVC,0.01,WeatherDisplay:10.37,2013-01-03 12:31:00,
2013-01-03 12:36:00,52.3,52.3,30.50,NW,315,0.7,3.5,100,0.00,CLR,OVC,0.01,WeatherDisplay:10.37,2013-01-03 12:36:00,
2013-01-03 12:41:00,52.5,52.5,30.51,West,270,1.6,3.8,100,0.00,CLR,OVC,0.01,WeatherDisplay:10.37,2013-01-03 12:41:00,
2013-01-03 12:46:00,52.5,52.2,30.50,North,0,1.6,3.8,99,0.00,CLR,OVC,0.01,WeatherDisplay:10.37,2013-01-03 12:46:00,
2013-01-03 12:51:00,52.5,52.2,30.50,NW,315,0.7,5.8,99,0.00,CLR,OVC,0.01,WeatherDisplay:10.37,2013-01-03 12:51:00,
2013-01-03 12:56:00,52.7,52.4,30.51,East,90,3.1,5.8,99,0.00,CLR,OVC,0.01,WeatherDisplay:10.37,2013-01-03 12:56:00,
2013-01-03 13:01:00,52.7,52.4,30.50,North,0,1.6,5.8,99,0.00,CLR,OVC,0.01,WeatherDisplay:10.37,2013-01-03 13:01:00,
2013-01-03 13:06:00,52.7,52.4,30.51,West,270,3.1,8.1,99,0.00,CLR,OVC,0.01,WeatherDisplay:10.37,2013-01-03 13:06:00,
2013-01-03 13:11:00,52.9,52.6,30.51,NE,45,1.6,4.6,99,0.00,CLR,OVC,0.01,WeatherDisplay:10.37,2013-01-03 13:11:00,
2013-01-03 13:16:00,52.9,52.3,30.51,East,90,3.1,8.1,98,0.00,CLR,OVC,0.01,WeatherDisplay:10.37,2013-01-03 13:16:00,
2013-01-03 13:21:00,52.9,52.3,30.51,NW,315,2.2,5.8,98,0.00,CLR,OVC,0.01,WeatherDisplay:10.37,2013-01-03 13:21:00,
2013-01-03 13:26:00,53.1,52.5,30.51,North,0,2.2,4.5,98,0.00,CLR,OVC,0.01,WeatherDisplay:10.37,2013-01-03 13:26:00,
2013-01-03 13:31:00,53.1,52.5,30.51,West,270,1.6,5.8,98,0.00,CLR,OVC,0.01,WeatherDisplay:10.37,2013-01-03 13:31:00,
2013-01-03 13:36:00,53.1,52.5,30.51,North,0,5.4,11.5,98,0.00,CLR,OVC,0.01,WeatherDisplay:10.37,2013-01-03 13:36:00,
2013-01-03 13:41:00,53.1,52.5,30.52,NW,315,2.2,5.8,98,0.00,CLR,OVC,0.01,WeatherDisplay:10.37,2013-01-03 13:41:00,
2013-01-03 13:46:00,53.1,52.5,30.51,NW,315,2.2,4.6,98,0.00,CLR,OVC,0.01,WeatherDisplay:10.37,2013-01-03 13:46:00,
2013-01-03 13:51:00,52.9,52.3,30.51,North,0,3.1,6.0,98,0.00,CLR,OVC,0.01,WeatherDisplay:10.37,2013-01-03 13:51:00,
2013-01-03 13:56:00,52.9,52.3,30.51,NE,45,2.2,5.8,98,0.00,CLR,OVC,0.01,WeatherDisplay:10.37,2013-01-03 13:56:00,
2013-01-03 14:01:00,52.9,52.3,30.51,NW,315,1.6,5.8,98,0.00,CLR,OVC,0.01,WeatherDisplay:10.37,2013-01-03 14:01:00,
2013-01-03 14:06:00,52.9,52.3,30.51,North,0,3.1,6.0,98,0.00,CLR,OVC,0.01,WeatherDisplay:10.37,2013-01-03 14:06:00,
2013-01-03 14:11:00,52.9,52.3,30.51,NE,45,0.7,3.1,98,0.00,CLR,OVC,0.01,WeatherDisplay:10.37,2013-01-03 14:11:00,
2013-01-03 14:16:00,52.9,52.1,30.52,North,0,0.7,4.6,97,0.00,CLR,OVC,0.01,WeatherDisplay:10.37,2013-01-03 14:16:00,
2013-01-03 14:21:00,52.7,52.2,30.52,NW,315,0.7,4.6,98,0.00,CLR,OVC,0.01,WeatherDisplay:10.37,2013-01-03 14:21:00,
2013-01-03 14:26:00,52.7,52.2,30.52,North,0,0.0,3.5,98,0.00,CLR,OVC,0.01,WeatherDisplay:10.37,2013-01-03 14:26:00,
2013-01-03 14:31:00,52.9,52.3,30.52,NW,315,1.6,4.5,98,0.00,CLR,OVC,0.01,WeatherDisplay:10.37,2013-01-03 14:31:00,
2013-01-03 14:36:00,52.7,52.2,30.52,NW,315,3.1,6.0,98,0.00,CLR,OVC,0.01,WeatherDisplay:10.37,2013-01-03 14:36:00,
2013-01-03 14:41:00,52.7,52.2,30.52,NW,315,3.1,6.0,98,0.00,CLR,OVC,0.01,WeatherDisplay:10.37,2013-01-03 14:41:00,
2013-01-03 14:46:00,52.7,52.2,30.52,North,0,2.2,4.6,98,0.00,CLR,OVC,0.01,WeatherDisplay:10.37,2013-01-03 14:46:00,
2013-01-03 14:51:00,52.7,52.2,30.52,WNW,292,2.2,3.8,98,0.00,CLR,OVC,0.01,WeatherDisplay:10.37,2013-01-03 14:51:00,
2013-01-03 14:56:00,52.7,52.2,30.52,North,0,0.7,5.8,98,0.00,CLR,OVC,0.01,WeatherDisplay:10.37,2013-01-03 14:56:00,
2013-01-03 15:02:00,52.7,52.2,30.52,NW,315,3.1,5.4,98,0.00,CLR,OVC,0.01,WeatherDisplay:10.37,2013-01-03 15:02:00,
2013-01-03 15:07:00,52.7,52.2,30.52,NW,315,0.0,3.5,98,0.00,CLR,OVC,0.01,WeatherDisplay:10.37,2013-01-03 15:07:00,
2013-01-03 15:12:00,52.7,52.2,30.53,SE,135,0.7,5.8,98,0.00,CLR,OVC,0.01,WeatherDisplay:10.37,2013-01-03 15:12:00,
2013-01-03 15:17:00,52.7,52.2,30.53,WSW,248,0.7,3.5,98,0.00,CLR,OVC,0.01,WeatherDisplay:10.37,2013-01-03 15:17:00,
2013-01-03 15:22:00,52.5,52.0,30.53,West,270,1.6,3.8,98,0.00,CLR,OVC,0.01,WeatherDisplay:10.37,2013-01-03 15:22:00,
2013-01-03 15:27:00,52.5,52.0,30.53,WSW,248,0.7,3.8,98,0.00,CLR,OVC,0.01,WeatherDisplay:10.37,2013-01-03 15:27:00,
2013-01-03 15:32:00,52.5,52.0,30.53,SE,135,0.7,3.5,98,0.00,CLR,OVC,0.01,WeatherDisplay:10.37,2013-01-03 15:32:00,
2013-01-03 15:37:00,52.5,52.0,30.53,SE,135,0.7,3.5,98,0.00,CLR,OVC,0.01,WeatherDisplay:10.37,2013-01-03 15:37:00,
2013-01-03 15:42:00,52.5,52.2,30.54,NNE,22,0.7,3.5,99,0.00,CLR,OVC,0.01,WeatherDisplay:10.37,2013-01-03 15:42:00,
2013-01-03 15:47:00,52.5,52.2,30.54,NW,315,0.7,3.5,99,0.00,CLR,OVC,0.01,WeatherDisplay:10.37,2013-01-03 15:47:00,
2013-01-03 15:52:00,52.5,52.2,30.54,NE,45,0.7,3.5,99,0.00,CLR,OVC,0.01,WeatherDisplay:10.37,2013-01-03 15:52:00,
2013-01-03 15:57:00,52.5,52.2,30.54,West,270,0.0,2.3,99,0.00,CLR,OVC,0.01,WeatherDisplay:10.37,2013-01-03 15:57:00,
2013-01-03 16:02:00,52.5,52.2,30.54,North,0,0.0,3.5,99,0.00,CLR,OVC,0.01,WeatherDisplay:10.37,2013-01-03 16:02:00,
2013-01-03 16:07:00,52.3,52.1,30.54,NE,45,0.7,3.5,99,0.00,CLR,OVC,0.01,WeatherDisplay:10.37,2013-01-03 16:07:00,
2013-01-03 16:12:00,52.3,52.1,30.54,West,270,0.0,2.3,99,0.00,CLR,OVC,0.01,WeatherDisplay:10.37,2013-01-03 16:12:00,
2013-01-03 16:17:00,52.3,52.1,30.54,East,90,0.0,1.6,99,0.00,CLR,OVC,0.01,WeatherDisplay:10.37,2013-01-03 16:17:00,
2013-01-03 16:22:00,52.3,52.1,30.54,NW,315,0.7,3.5,99,0.00,CLR,OVC,0.01,WeatherDisplay:10.37,2013-01-03 16:22:00,
2013-01-03 16:27:00,52.3,52.1,30.54,NE,45,0.7,3.8,99,0.00,CLR,OVC,0.01,WeatherDisplay:10.37,2013-01-03 16:27:00,
2013-01-03 16:32:00,52.3,52.1,30.54,NE,45,1.6,5.8,99,0.00,CLR,OVC,0.01,WeatherDisplay:10.37,2013-01-03 16:32:00,
2013-01-03 16:37:00,52.3,52.1,30.54,NW,315,0.7,3.5,99,0.00,CLR,OVC,0.01,WeatherDisplay:10.37,2013-01-03 16:37:00,
2013-01-03 16:42:00,52.3,52.1,30.54,West,270,0.7,2.3,99,0.00,CLR,OVC,0.01,WeatherDisplay:10.37,2013-01-03 16:42:00,
2013-01-03 16:47:00,52.3,52.1,30.55,North,0,1.6,6.9,99,0.00,CLR,OVC,0.01,WeatherDisplay:10.37,2013-01-03 16:47:00,
2013-01-03 16:52:00,52.3,52.1,30.55,NW,315,1.6,3.8,99,0.00,CLR,OVC,0.01,WeatherDisplay:10.37,2013-01-03 16:52:00,
2013-01-03 16:57:00,52.3,52.1,30.55,NW,315,1.6,3.5,99,0.00,CLR,OVC,0.01,WeatherDisplay:10.37,2013-01-03 16:57:00,
2013-01-03 17:02:00,52.3,52.1,30.56,NW,315,0.7,4.6,99,0.00,CLR,OVC,0.01,WeatherDisplay:10.37,2013-01-03 17:02:00,
2013-01-03 17:07:00,52.2,51.6,30.56,NW,315,1.6,4.6,98,0.00,CLR,OVC,0.01,WeatherDisplay:10.37,2013-01-03 17:07:00,
2013-01-03 17:12:00,52.2,51.6,30.56,NE,45,1.6,5.4,98,0.00,CLR,OVC,0.01,WeatherDisplay:10.37,2013-01-03 17:12:00,
2013-01-03 17:17:00,52.2,51.9,30.56,NW,315,0.7,3.1,99,0.00,CLR,OVC,0.01,WeatherDisplay:10.37,2013-01-03 17:17:00,
2013-01-03 17:22:00,52.0,51.7,30.56,West,270,2.2,4.6,99,0.00,CLR,OVC,0.01,WeatherDisplay:10.37,2013-01-03 17:22:00,
2013-01-03 17:27:00,52.0,51.7,30.56,SW,225,0.7,3.5,99,0.00,CLR,OVC,0.01,WeatherDisplay:10.37,2013-01-03 17:27:00,
2013-01-03 17:32:00,51.8,51.5,30.56,WSW,248,2.2,5.4,99,0.00,CLR,OVC,0.01,WeatherDisplay:10.37,2013-01-03 17:32:00,
2013-01-03 17:37:00,51.8,51.5,30.56,North,0,2.2,4.5,99,0.00,CLR,OVC,0.01,WeatherDisplay:10.37,2013-01-03 17:37:00,
2013-01-03 17:42:00,51.8,51.5,30.56,NW,315,0.7,3.8,99,0.00,CLR,OVC,0.01,WeatherDisplay:10.37,2013-01-03 17:42:00,
2013-01-03 17:47:00,51.8,51.5,30.57,North,0,2.2,4.6,99,0.00,CLR,OVC,0.01,WeatherDisplay:10.37,2013-01-03 17:47:00,
2013-01-03 17:52:00,51.8,51.5,30.57,NW,315,1.6,4.5,99,0.00,CLR,OVC,0.01,WeatherDisplay:10.37,2013-01-03 17:52:00,
2013-01-03 17:57:00,51.6,51.3,30.56,NE,45,1.6,3.5,99,0.00,CLR,OVC,0.01,WeatherDisplay:10.37,2013-01-03 17:57:00,
2013-01-03 18:02:00,51.6,51.3,30.57,NW,315,3.8,6.0,99,0.00,CLR,OVC,0.01,WeatherDisplay:10.37,2013-01-03 18:02:00,
2013-01-03 18:07:00,51.6,51.3,30.56,North,0,1.6,3.8,99,0.00,CLR,OVC,0.01,WeatherDisplay:10.37,2013-01-03 18:07:00,
2013-01-03 18:12:00,51.6,51.3,30.57,North,0,3.1,6.9,99,0.00,CLR,OVC,0.01,WeatherDisplay:10.37,2013-01-03 18:12:00,
2013-01-03 18:17:00,51.8,51.5,30.57,North,0,1.6,3.5,99,0.00,CLR,OVC,0.01,WeatherDisplay:10.37,2013-01-03 18:17:00,
2013-01-03 18:22:00,51.8,51.5,30.57,North,0,1.6,3.5,99,0.00,CLR,OVC,0.01,WeatherDisplay:10.37,2013-01-03 18:22:00,
2013-01-03 18:27:00,51.8,51.5,30.57,NE,45,1.6,3.8,99,0.00,CLR,OVC,0.01,WeatherDisplay:10.37,2013-01-03 18:27:00,
2013-01-03 18:33:00,51.8,51.5,30.56,North,0,0.7,3.5,99,0.00,CLR,OVC,0.01,WeatherDisplay:10.37,2013-01-03 18:33:00,
2013-01-03 18:38:00,51.8,51.5,30.57,NNE,13,2.2,5.8,99,0.00,CLR,OVC,0.01,WeatherDisplay:10.37,2013-01-03 18:38:00,
2013-01-03 18:43:00,51.8,51.5,30.56,North,0,0.7,5.8,99,0.00,CLR,OVC,0.01,WeatherDisplay:10.37,2013-01-03 18:43:00,
2013-01-03 18:48:00,51.8,51.5,30.57,North,0,1.6,3.8,99,0.00,CLR,OVC,0.01,WeatherDisplay:10.37,2013-01-03 18:48:00,
2013-01-03 18:53:00,51.8,51.5,30.57,NE,45,1.6,3.5,99,0.00,CLR,OVC,0.01,WeatherDisplay:10.37,2013-01-03 18:53:00,
2013-01-03 18:58:00,51.8,51.5,30.57,North,0,0.7,3.5,99,0.00,CLR,OVC,0.01,WeatherDisplay:10.37,2013-01-03 18:58:00,
2013-01-03 19:03:00,51.8,51.5,30.58,North,0,0.7,3.5,99,0.00,CLR,OVC,0.01,WeatherDisplay:10.37,2013-01-03 19:03:00,
2013-01-03 19:08:00,51.8,51.5,30.58,NW,315,0.0,1.6,99,0.00,CLR,OVC,0.01,WeatherDisplay:10.37,2013-01-03 19:08:00,
2013-01-03 19:13:00,51.8,51.5,30.58,WSW,248,1.6,4.6,99,0.00,CLR,OVC,0.01,WeatherDisplay:10.37,2013-01-03 19:13:00,
2013-01-03 19:18:00,51.8,51.5,30.57,North,0,0.7,3.5,99,0.00,CLR,OVC,0.01,WeatherDisplay:10.37,2013-01-03 19:18:00,
2013-01-03 19:55:00,52.0,51.4,30.58,North,0,1.6,3.8,98,0.00,CLR,OVC,0.01,WeatherDisplay:10.37,2013-01-03 19:55:00,
2013-01-03 20:00:00,52.0,51.7,30.57,WNW,292,2.2,3.8,99,0.00,CLR,OVC,0.01,WeatherDisplay:10.37,2013-01-03 20:00:00,
2013-01-03 20:05:00,52.0,51.7,30.57,NE,45,0.7,3.5,99,0.00,CLR,OVC,0.01,WeatherDisplay:10.37,2013-01-03 20:05:00,
2013-01-03 20:10:00,52.0,51.7,30.57,North,0,1.6,3.1,99,0.00,CLR,OVC,0.01,WeatherDisplay:10.37,2013-01-03 20:10:00,
2013-01-03 20:15:00,52.0,51.7,30.57,NE,45,0.7,2.3,99,0.00,CLR,OVC,0.01,WeatherDisplay:10.37,2013-01-03 20:15:00,
2013-01-03 20:20:00,52.0,51.7,30.57,NW,315,0.7,4.5,99,0.00,CLR,OVC,0.01,WeatherDisplay:10.37,2013-01-03 20:20:00,
2013-01-03 20:25:00,52.0,51.7,30.58,North,0,1.6,5.4,99,0.00,CLR,OVC,0.01,WeatherDisplay:10.37,2013-01-03 20:25:00,
2013-01-03 20:30:00,52.0,51.7,30.57,North,0,3.1,5.8,99,0.00,CLR,OVC,0.01,WeatherDisplay:10.37,2013-01-03 20:30:00,
2013-01-03 20:35:00,52.0,51.7,30.58,WNW,292,3.1,5.8,99,0.00,CLR,OVC,0.01,WeatherDisplay:10.37,2013-01-03 20:35:00,
2013-01-03 20:40:00,52.0,51.7,30.58,East,90,0.0,3.8,99,0.00,CLR,OVC,0.01,WeatherDisplay:10.37,2013-01-03 20:40:00,
2013-01-03 20:45:00,52.2,51.9,30.59,NE,45,0.7,3.5,99,0.00,CLR,OVC,0.01,WeatherDisplay:10.37,2013-01-03 20:45:00,
2013-01-03 20:50:00,52.2,51.9,30.58,NNW,338,0.0,2.3,99,0.00,CLR,OVC,0.01,WeatherDisplay:10.37,2013-01-03 20:50:00,
2013-01-03 20:55:00,52.2,51.9,30.58,NW,315,0.7,3.5,99,0.00,CLR,OVC,0.01,WeatherDisplay:10.37,2013-01-03 20:55:00,
2013-01-03 21:00:00,52.2,51.9,30.58,North,0,0.0,2.3,99,0.00,CLR,OVC,0.01,WeatherDisplay:10.37,2013-01-03 21:00:00,
2013-01-03 21:05:00,52.2,51.9,30.58,NE,45,0.0,1.1,99,0.00,CLR,OVC,0.01,WeatherDisplay:10.37,2013-01-03 21:05:00,
2013-01-03 21:10:00,52.2,51.9,30.60,NW,315,0.0,2.3,99,0.00,CLR,OVC,0.01,WeatherDisplay:10.37,2013-01-03 21:10:00,
2013-01-03 21:15:00,52.2,51.9,30.59,North,0,0.7,2.3,99,0.00,CLR,OVC,0.01,WeatherDisplay:10.37,2013-01-03 21:15:00,
2013-01-03 21:20:00,52.2,51.9,30.59,WNW,292,0.0,1.6,99,0.00,CLR,OVC,0.01,WeatherDisplay:10.37,2013-01-03 21:20:00,
2013-01-03 21:26:00,52.2,51.9,30.59,NW,315,0.0,4.6,99,0.00,CLR,OVC,0.01,WeatherDisplay:10.37,2013-01-03 21:26:00,
2013-01-03 21:31:00,52.2,51.9,30.59,NW,315,0.0,2.3,99,0.00,CLR,OVC,0.01,WeatherDisplay:10.37,2013-01-03 21:31:00,
2013-01-03 21:36:00,52.2,51.9,30.59,North,0,0.7,3.5,99,0.00,CLR,OVC,0.01,WeatherDisplay:10.37,2013-01-03 21:36:00,
2013-01-03 21:41:00,52.2,51.9,30.60,NW,315,0.7,4.6,99,0.00,CLR,OVC,0.01,WeatherDisplay:10.37,2013-01-03 21:41:00,
2013-01-03 21:46:00,52.2,51.9,30.61,NW,315,2.2,4.6,99,0.00,CLR,OVC,0.01,WeatherDisplay:10.37,2013-01-03 21:46:00,
2013-01-03 21:51:00,52.3,52.1,30.60,NW,315,1.6,3.5,99,0.00,CLR,OVC,0.01,WeatherDisplay:10.37,2013-01-03 21:51:00,
2013-01-03 21:56:00,52.3,52.1,30.59,SSW,202,3.1,6.9,99,0.00,CLR,OVC,0.01,WeatherDisplay:10.37,2013-01-03 21:56:00,
2013-01-03 22:01:00,52.3,52.1,30.59,West,270,0.7,3.8,99,0.00,CLR,OVC,0.01,WeatherDisplay:10.37,2013-01-03 22:01:00,
2013-01-03 22:06:00,52.3,52.1,30.59,South,180,1.6,3.8,99,0.00,CLR,OVC,0.01,WeatherDisplay:10.37,2013-01-03 22:06:00,
2013-01-03 22:11:00,52.3,52.1,30.60,North,0,2.2,4.5,99,0.00,CLR,OVC,0.01,WeatherDisplay:10.37,2013-01-03 22:11:00,
2013-01-03 22:16:00,52.3,52.1,30.60,NE,45,1.6,5.8,99,0.00,CLR,OVC,0.01,WeatherDisplay:10.37,2013-01-03 22:16:00,
2013-01-03 22:21:00,52.2,51.9,30.60,NW,315,0.0,2.3,99,0.00,CLR,OVC,0.01,WeatherDisplay:10.37,2013-01-03 22:21:00,
2013-01-03 22:26:00,52.2,51.9,30.60,NW,315,0.7,3.5,99,0.00,CLR,OVC,0.01,WeatherDisplay:10.37,2013-01-03 22:26:00,
2013-01-03 22:31:00,52.2,51.6,30.60,East,90,0.0,1.1,98,0.00,CLR,OVC,0.01,WeatherDisplay:10.37,2013-01-03 22:31:00,
2013-01-03 22:36:00,52.2,51.6,30.60,NE,45,0.7,3.8,98,0.00,CLR,OVC,0.01,WeatherDisplay:10.37,2013-01-03 22:36:00,
2013-01-03 22:41:00,52.2,51.9,30.60,North,0,1.6,4.6,99,0.00,CLR,OVC,0.01,WeatherDisplay:10.37,2013-01-03 22:41:00,
2013-01-03 22:46:00,52.2,51.9,30.60,NW,315,0.7,3.5,99,0.00,CLR,OVC,0.01,WeatherDisplay:10.37,2013-01-03 22:46:00,
2013-01-03 22:51:00,52.2,51.6,30.60,NW,315,0.7,3.8,98,0.00,CLR,OVC,0.01,WeatherDisplay:10.37,2013-01-03 22:51:00,
2013-01-03 22:56:00,52.2,51.6,30.60,North,0,1.6,4.6,98,0.00,CLR,OVC,0.01,WeatherDisplay:10.37,2013-01-03 22:56:00,
2013-01-03 23:01:00,52.0,51.4,30.60,North,0,2.2,5.8,98,0.00,CLR,OVC,0.01,WeatherDisplay:10.37,2013-01-03 23:01:00,
2013-01-03 23:06:00,52.0,51.4,30.60,NW,315,3.1,6.9,98,0.00,CLR,OVC,0.01,WeatherDisplay:10.37,2013-01-03 23:06:00,
2013-01-03 23:11:00,52.0,51.4,30.60,North,0,1.6,4.5,98,0.00,CLR,OVC,0.01,WeatherDisplay:10.37,2013-01-03 23:11:00,
2013-01-03 23:16:00,51.8,51.3,30.60,SW,225,0.0,3.8,98,0.00,CLR,OVC,0.01,WeatherDisplay:10.37,2013-01-03 23:16:00,
2013-01-03 23:21:00,51.8,51.3,30.60,South,180,2.2,5.4,98,0.00,CLR,OVC,0.01,WeatherDisplay:10.37,2013-01-03 23:21:00,
2013-01-03 23:26:00,51.8,51.3,30.60,NW,315,0.7,4.6,98,0.00,CLR,OVC,0.01,WeatherDisplay:10.37,2013-01-03 23:26:00,
2013-01-03 23:31:00,51.8,51.3,30.60,North,0,1.6,4.5,98,0.00,CLR,OVC,0.01,WeatherDisplay:10.37,2013-01-03 23:31:00,
2013-01-03 23:36:00,51.8,51.3,30.60,North,0,0.0,3.5,98,0.00,CLR,OVC,0.01,WeatherDisplay:10.37,2013-01-03 23:36:00,
2013-01-03 23:41:00,51.8,51.3,30.61,North,0,2.2,6.0,98,0.00,CLR,OVC,0.01,WeatherDisplay:10.37,2013-01-03 23:41:00,
2013-01-03 23:46:00,51.6,51.1,30.60,North,0,3.1,8.3,98,0.00,CLR,OVC,0.01,WeatherDisplay:10.37,2013-01-03 23:46:00,
2013-01-03 23:51:00,51.6,51.1,30.60,NE,45,0.7,4.6,98,0.00,CLR,OVC,0.01,WeatherDisplay:10.37,2013-01-03 23:51:00,
2013-01-03 23:57:00,51.6,51.1,30.60,WNW,292,1.6,4.6,98,0.00,CLR,OVC,0.01,WeatherDisplay:10.37,2013-01-03 23:57:00,